createdAt,value
2019-02-16T00:00:48.943Z,98.60
2019-02-16T00:03:17.423Z,98.60
2019-02-16T00:05:45.763Z,98.70
2019-02-16T00:08:13.976Z,98.60
2019-02-16T00:10:42.453Z,98.50
2019-02-16T00:13:10.937Z,98.50
2019-02-16T00:15:39.210Z,98.60
2019-02-16T00:18:08.918Z,98.70
2019-02-16T00:20:36.990Z,98.60
2019-02-16T00:23:05.321Z,98.50
2019-02-16T00:25:33.543Z,98.60
2019-02-16T00:28:01.817Z,98.60
2019-02-16T00:30:30.093Z,98.60
2019-02-16T00:32:58.370Z,98.60
2019-02-16T00:35:26.649Z,98.40
2019-02-16T00:37:54.715Z,98.40
2019-02-16T00:40:23.195Z,98.50
2019-02-16T00:42:51.676Z,98.50
2019-02-16T00:45:20.157Z,98.70
2019-02-16T00:47:51.917Z,98.70
2019-02-16T00:50:20.189Z,99.30
2019-02-16T00:52:49.695Z,98.50
2019-02-16T00:55:18.175Z,98.40
2019-02-16T00:57:46.656Z,98.40
2019-02-16T01:00:14.733Z,98.50
2019-02-16T01:02:42.799Z,98.60
2019-02-16T01:05:17.220Z,98.60
2019-02-16T01:08:05.614Z,98.10
2019-02-16T01:10:34.044Z,98.40
2019-02-16T01:13:02.524Z,98.50
2019-02-16T01:15:31.005Z,98.60
2019-02-16T01:17:59.486Z,98.60
2019-02-16T01:20:27.969Z,98.60
2019-02-16T01:22:56.245Z,98.60
2019-02-16T01:25:24.516Z,98.60
2019-02-16T01:27:54.021Z,98.40
2019-02-16T01:30:23.526Z,98.80
2019-02-16T01:32:51.597Z,98.80
2019-02-16T01:35:19.874Z,98.70
2019-02-16T01:37:48.149Z,98.70
2019-02-16T01:40:16.424Z,98.70
2019-02-16T01:42:44.546Z,98.70
2019-02-16T01:45:13.185Z,98.70
2019-02-16T01:47:40.841Z,98.80
2019-02-16T01:50:09.325Z,98.80
2019-02-16T01:52:37.805Z,98.90
2019-02-16T01:55:08.694Z,98.90
2019-02-16T01:57:36.196Z,99.20
2019-02-16T02:00:06.552Z,99.20
2019-02-16T02:02:34.182Z,99.20
2019-02-16T02:05:02.051Z,99.20
2019-02-16T02:07:31.143Z,99.40
2019-02-16T02:09:59.627Z,99.30
2019-02-16T02:12:29.336Z,99.10
2019-02-16T02:14:58.840Z,99.30
2019-02-16T02:17:27.265Z,99.30
2019-02-16T02:19:54.980Z,99.40
2019-02-16T02:22:23.256Z,99.60
2019-02-16T02:24:51.735Z,99.60
2019-02-16T02:27:21.240Z,99.60
2019-02-16T02:29:49.724Z,99.70
2019-02-16T02:32:17.791Z,99.60
2019-02-16T02:34:45.862Z,99.60
2019-02-16T02:37:14.138Z,99.60
2019-02-16T02:39:42.213Z,99.60
2019-02-16T02:42:10.490Z,99.70
2019-02-16T02:44:38.390Z,99.70
2019-02-16T02:47:06.470Z,99.70
2019-02-16T02:49:34.697Z,99.90
2019-02-16T02:52:02.977Z,99.90
2019-02-16T02:54:31.254Z,99.90
2019-02-16T02:57:00.758Z,99.70
2019-02-16T02:59:29.028Z,99.90
2019-02-16T03:01:57.304Z,99.90
2019-02-16T03:04:25.607Z,99.90
2019-02-16T03:06:55.098Z,99.90
2019-02-16T03:09:23.155Z,99.90
2019-02-16T03:11:51.430Z,99.90
2019-02-16T03:14:19.706Z,99.90
2019-02-16T03:16:47.984Z,99.90
2019-02-16T03:19:16.261Z,99.90
2019-02-16T03:21:44.174Z,99.90
2019-02-16T03:24:13.628Z,99.90
2019-02-16T03:26:45.591Z,99.90
2019-02-16T03:29:25.950Z,99.90
2019-02-16T03:32:16.366Z,99.90
2019-02-16T03:34:50.971Z,99.90
2019-02-16T03:37:31.618Z,99.90
2019-02-16T03:39:59.195Z,99.90
2019-02-16T03:42:28.706Z,99.90
2019-02-16T03:44:57.180Z,99.90
2019-02-16T03:47:25.250Z,99.90
2019-02-16T03:49:53.524Z,99.90
2019-02-16T03:52:23.031Z,99.90
2019-02-16T03:54:51.305Z,99.90
2019-02-16T03:57:19.584Z,99.90
2019-02-16T03:59:47.856Z,99.90
2019-02-16T04:02:16.132Z,99.90
2019-02-16T04:04:44.412Z,99.90
2019-02-16T04:07:12.685Z,99.90
2019-02-16T04:09:40.960Z,99.90
2019-02-16T04:12:08.825Z,99.90
2019-02-16T04:14:37.305Z,99.90
2019-02-16T04:17:05.786Z,99.90
2019-02-16T04:19:33.859Z,99.90
2019-02-16T04:22:03.366Z,99.90
2019-02-16T04:24:31.639Z,99.90
2019-02-16T04:26:59.708Z,99.90
2019-02-16T04:29:28.194Z,99.90
2019-02-16T04:31:57.694Z,99.90
2019-02-16T04:34:26.174Z,99.90
2019-02-16T04:37:07.699Z,99.90
2019-02-16T04:39:35.218Z,99.90
2019-02-16T04:42:03.494Z,99.90
2019-02-16T04:44:31.976Z,99.90
2019-02-16T04:47:19.887Z,99.90
2019-02-16T04:50:01.811Z,99.90
2019-02-16T04:52:34.727Z,99.90
2019-02-16T04:54:59.279Z,99.90
2019-02-16T04:57:28.988Z,99.90
2019-02-16T04:59:58.492Z,99.90
2019-02-16T05:02:39.748Z,99.90
2019-02-16T05:05:07.331Z,99.90
2019-02-16T05:07:35.813Z,99.90
2019-02-16T05:10:05.726Z,99.90
2019-02-16T05:12:35.230Z,99.70
2019-02-16T05:15:16.515Z,99.90
2019-02-16T05:17:44.274Z,99.90
2019-02-16T05:20:12.773Z,99.90
2019-02-16T05:22:44.581Z,99.90
2019-02-16T05:25:10.128Z,99.90
2019-02-16T05:27:51.101Z,99.90
2019-02-16T05:30:18.763Z,99.80
2019-02-16T05:32:47.242Z,99.90
2019-02-16T05:35:15.722Z,99.90
2019-02-16T05:37:48.535Z,99.90
2019-02-16T05:40:16.984Z,99.90
2019-02-16T05:42:45.259Z,99.90
2019-02-16T05:45:13.538Z,99.90
2019-02-16T05:47:41.811Z,99.90
2019-02-16T05:50:10.087Z,99.90
2019-02-16T05:52:37.953Z,99.90
2019-02-16T05:55:06.638Z,99.90
2019-02-16T05:57:34.300Z,99.90
2019-02-16T06:00:06.013Z,99.90
2019-02-16T06:02:33.717Z,99.90
2019-02-16T06:05:02.200Z,99.90
2019-02-16T06:07:30.272Z,99.90
2019-02-16T06:09:58.136Z,99.90
2019-02-16T06:12:26.616Z,99.90
2019-02-16T06:15:04.107Z,99.90
2019-02-16T06:17:31.769Z,99.90
2019-02-16T06:20:00.352Z,99.90
2019-02-16T06:22:28.525Z,99.90
2019-02-16T06:24:57.006Z,99.90
2019-02-16T06:27:25.489Z,99.90
2019-02-16T06:29:53.384Z,99.90
2019-02-16T06:32:21.411Z,99.90
2019-02-16T06:34:51.353Z,99.90
2019-02-16T06:40:11.647Z,99.90
2019-02-16T06:42:39.921Z,99.90
2019-02-16T06:45:08.197Z,99.90
2019-02-16T06:47:36.267Z,99.90
2019-02-16T06:50:05.158Z,99.90
2019-02-16T06:52:33.640Z,99.90
2019-02-16T06:55:02.123Z,99.90
2019-02-16T06:57:31.213Z,99.90
2019-02-16T06:59:59.284Z,99.70
2019-02-16T07:02:28.994Z,99.40
2019-02-16T07:04:56.862Z,99.10
2019-02-16T07:07:44.726Z,98.70
2019-02-16T07:10:12.867Z,99.10
2019-02-16T07:12:41.401Z,97.60
2019-02-16T07:15:09.009Z,97.10
2019-02-16T07:17:48.139Z,97.10
2019-02-16T07:20:18.467Z,97.10
2019-02-16T07:22:46.742Z,96.90
2019-02-16T07:25:14.709Z,96.80
2019-02-16T07:27:43.086Z,96.30
2019-02-16T07:30:11.569Z,96.40
2019-02-16T07:32:40.052Z,96.30
2019-02-16T07:35:08.530Z,96.40
2019-02-16T07:37:36.399Z,96.50
2019-02-16T07:40:06.256Z,97.10
2019-02-16T07:42:57.316Z,97.00
2019-02-16T07:45:34.807Z,97.10
2019-02-16T07:48:10.456Z,97.10
2019-02-16T07:50:46.718Z,96.80
2019-02-16T07:53:16.428Z,96.90
2019-02-16T07:55:47.165Z,96.70
2019-02-16T07:58:17.280Z,96.60
2019-02-16T08:00:46.989Z,96.20
2019-02-16T08:03:17.283Z,95.50
2019-02-16T08:05:49.275Z,95.70
2019-02-16T08:08:20.828Z,94.40
2019-02-16T08:10:50.947Z,94.60
2019-02-16T08:13:39.292Z,93.70
2019-02-16T08:16:25.798Z,93.50
2019-02-16T08:19:11.777Z,93.40
2019-02-16T08:22:00.647Z,92.50
2019-02-16T08:24:36.500Z,92.10
2019-02-16T08:27:06.445Z,92.40
2019-02-16T08:29:52.712Z,92.60
2019-02-16T08:32:32.256Z,92.10
2019-02-16T08:35:21.211Z,90.60
2019-02-16T08:37:51.136Z,89.10
2019-02-16T08:40:21.862Z,88.80
2019-02-16T08:42:55.049Z,88.80
2019-02-16T08:45:41.969Z,86.80
2019-02-16T08:48:12.401Z,82.10
2019-02-16T08:50:52.031Z,76.70
2019-02-16T08:53:29.113Z,76.40
2019-02-16T08:55:59.641Z,75.60
2019-02-16T08:58:29.351Z,75.60
2019-02-16T09:01:10.703Z,74.60
2019-02-16T09:03:43.310Z,73.20
2019-02-16T09:06:31.248Z,74.00
2019-02-16T09:09:01.379Z,74.90
2019-02-16T09:11:47.664Z,75.00
2019-02-16T09:14:27.002Z,75.50
2019-02-16T09:17:13.305Z,76.70
2019-02-16T09:19:43.007Z,76.40
2019-02-16T09:22:13.658Z,76.90
2019-02-16T09:24:46.726Z,78.20
2019-02-16T09:27:32.411Z,79.40
2019-02-16T09:30:05.197Z,82.10
2019-02-16T09:32:35.260Z,81.40
2019-02-16T09:35:10.142Z,83.70
2019-02-16T09:37:43.946Z,82.70
2019-02-16T09:40:18.776Z,81.70
2019-02-16T09:42:49.097Z,79.10
2019-02-16T09:45:36.215Z,79.50
2019-02-16T09:48:21.079Z,78.10
2019-02-16T09:50:56.932Z,74.10
2019-02-16T09:53:39.135Z,73.60
2019-02-16T09:56:18.265Z,75.20
2019-02-16T09:58:48.592Z,73.30
2019-02-16T10:01:24.444Z,72.10
2019-02-16T10:03:57.225Z,73.20
2019-02-16T10:06:45.776Z,75.90
2019-02-16T10:09:16.098Z,73.30
2019-02-16T10:11:46.832Z,72.10
2019-02-16T10:14:22.480Z,69.90
2019-02-16T10:16:58.338Z,65.70
2019-02-16T10:19:31.114Z,63.20
2019-02-16T10:22:18.231Z,65.30
2019-02-16T10:24:51.013Z,68.60
2019-02-16T10:27:36.697Z,70.10
2019-02-16T10:30:26.887Z,71.00
2019-02-16T10:33:08.316Z,73.30
2019-02-16T10:35:43.713Z,70.20
2019-02-16T10:38:16.910Z,73.20
2019-02-16T10:40:55.829Z,72.70
2019-02-16T10:43:30.249Z,73.50
2019-02-16T10:46:12.246Z,70.50
2019-02-16T10:48:54.244Z,72.50
2019-02-16T10:51:33.579Z,70.20
2019-02-16T10:54:26.979Z,69.20
2019-02-16T10:56:55.526Z,70.40
2019-02-16T10:59:24.932Z,72.40
2019-02-16T11:01:55.354Z,71.40
2019-02-16T11:04:38.194Z,67.10
2019-02-16T11:09:55.406Z,65.80
2019-02-16T11:12:25.526Z,67.20
2019-02-16T11:14:55.850Z,68.60
2019-02-16T11:17:34.980Z,66.40
2019-02-16T11:20:13.496Z,66.40
2019-02-16T11:23:01.228Z,64.90
2019-02-16T11:25:43.841Z,65.00
2019-02-16T11:28:14.035Z,65.90
2019-02-16T11:30:47.101Z,64.70
2019-02-16T11:33:19.318Z,63.20
2019-02-16T11:35:57.223Z,59.90
2019-02-16T11:38:45.360Z,58.80
2019-02-16T11:41:18.991Z,58.00
2019-02-16T11:44:02.800Z,56.30
2019-02-16T11:46:33.123Z,55.00
2019-02-16T11:49:14.711Z,53.30
2019-02-16T11:51:54.323Z,54.70
2019-02-16T11:54:30.109Z,52.70
2019-02-16T11:57:05.960Z,52.60
2019-02-16T11:59:38.945Z,52.70
2019-02-16T12:02:11.072Z,52.40
2019-02-16T12:04:41.028Z,51.40
2019-02-16T12:07:27.938Z,49.50
2019-02-16T12:10:01.335Z,49.50
2019-02-16T12:12:36.778Z,51.90
2019-02-16T12:15:08.126Z,50.90
2019-02-16T12:17:41.316Z,48.10
2019-02-16T12:20:20.038Z,47.00
2019-02-16T12:23:02.239Z,47.60
2019-02-16T12:25:38.298Z,49.50
2019-02-16T12:28:17.224Z,46.50
2019-02-16T12:30:53.281Z,46.60
2019-02-16T12:33:26.470Z,47.10
2019-02-16T12:36:07.444Z,48.80
2019-02-16T12:38:52.321Z,49.70
2019-02-16T12:41:38.813Z,49.10
2019-02-16T12:44:27.978Z,47.00
2019-02-16T12:47:00.566Z,47.00
2019-02-16T12:49:35.794Z,49.80
2019-02-16T12:52:22.501Z,50.30
2019-02-16T12:55:04.294Z,49.30
2019-02-16T12:57:39.948Z,47.50
2019-02-16T13:00:18.874Z,46.90
2019-02-16T13:02:57.590Z,49.70
2019-02-16T13:05:27.503Z,50.50
2019-02-16T13:07:57.432Z,52.20
2019-02-16T13:10:32.419Z,52.70
2019-02-16T13:13:01.480Z,50.10
2019-02-16T13:15:36.416Z,49.80
2019-02-16T13:18:05.472Z,51.60
2019-02-16T13:20:36.392Z,53.50
2019-02-16T13:23:05.461Z,55.80
2019-02-16T13:25:34.583Z,59.20
2019-02-16T13:28:19.940Z,61.00
2019-02-16T13:30:49.065Z,63.20
2019-02-16T13:33:30.107Z,63.50
2019-02-16T13:36:02.152Z,65.20
2019-02-16T13:38:48.052Z,65.50
2019-02-16T13:41:17.205Z,65.80
2019-02-16T13:43:46.349Z,65.90
2019-02-16T13:46:24.523Z,66.90
2019-02-16T13:48:56.382Z,67.10
2019-02-16T13:51:28.009Z,66.80
2019-02-16T13:53:56.989Z,67.80
2019-02-16T13:56:26.004Z,67.50
2019-02-16T13:59:01.043Z,65.90
2019-02-16T14:01:30.004Z,66.20
2019-02-16T14:04:02.564Z,65.90
2019-02-16T14:06:31.614Z,67.70
2019-02-16T14:09:00.689Z,65.10
2019-02-16T14:11:38.532Z,65.80
2019-02-16T14:14:10.282Z,65.90
2019-02-16T14:16:54.316Z,65.70
2019-02-16T14:19:21.460Z,65.60
2019-02-16T14:21:48.708Z,65.00
2019-02-16T14:24:17.814Z,64.30
2019-02-16T14:26:44.963Z,64.50
2019-02-16T14:29:12.206Z,65.40
2019-02-16T14:31:39.394Z,66.70
2019-02-16T14:34:06.694Z,68.00
2019-02-16T14:36:33.950Z,68.90
2019-02-16T14:39:05.968Z,68.70
2019-02-16T14:41:33.209Z,69.50
2019-02-16T14:44:00.593Z,68.60
2019-02-16T14:46:28.200Z,69.30
2019-02-16T14:48:55.457Z,70.20
2019-02-16T14:51:22.888Z,70.60
2019-02-16T14:53:50.299Z,70.60
2019-02-16T14:56:17.649Z,71.20
2019-02-16T14:58:45.455Z,71.50
2019-02-16T15:01:13.583Z,72.60
2019-02-16T15:03:40.808Z,73.20
2019-02-16T15:06:08.001Z,73.80
2019-02-16T15:08:35.379Z,74.30
2019-02-16T15:11:03.056Z,74.40
2019-02-16T15:13:31.344Z,75.00
2019-02-16T15:15:58.689Z,75.40
2019-02-16T15:18:26.129Z,75.80
2019-02-16T15:20:54.313Z,76.40
2019-02-16T15:23:21.572Z,77.20
2019-02-16T15:25:48.795Z,77.90
2019-02-16T15:28:16.132Z,78.60
2019-02-16T15:30:43.464Z,79.00
2019-02-16T15:33:10.781Z,79.10
2019-02-16T15:35:38.073Z,79.70
2019-02-16T15:38:05.379Z,80.20
2019-02-16T15:40:32.578Z,80.50
2019-02-16T15:42:59.747Z,80.90
2019-02-16T15:45:26.965Z,81.20
2019-02-16T15:47:54.264Z,81.80
2019-02-16T15:50:21.517Z,82.20
2019-02-16T15:52:48.694Z,82.50
2019-02-16T15:55:15.999Z,82.90
2019-02-16T15:57:43.343Z,83.30
2019-02-16T16:00:16.111Z,83.80
2019-02-16T16:02:43.386Z,84.10
2019-02-16T16:05:10.552Z,84.90
2019-02-16T16:07:38.673Z,85.40
2019-02-16T16:10:11.074Z,85.70
2019-02-16T16:12:41.250Z,86.20
2019-02-16T16:15:19.175Z,86.90
2019-02-16T16:17:57.052Z,87.10
2019-02-16T16:20:26.547Z,87.60
2019-02-16T16:22:58.808Z,88.10
2019-02-16T16:25:33.543Z,88.50
2019-02-16T16:28:15.781Z,88.70
2019-02-16T16:30:44.783Z,89.10
2019-02-16T16:33:19.997Z,89.10
2019-02-16T16:35:55.181Z,89.30
2019-02-16T16:38:30.041Z,89.60
2019-02-16T16:41:01.897Z,90.00
2019-02-16T16:43:31.432Z,89.60
2019-02-16T16:46:16.985Z,89.80
2019-02-16T16:49:00.978Z,89.60
2019-02-16T16:51:30.113Z,89.60
2019-02-16T16:54:05.404Z,89.90
2019-02-16T16:56:34.764Z,90.00
2019-02-16T16:59:13.201Z,89.70
2019-02-16T17:01:51.193Z,89.70
2019-02-16T17:04:23.558Z,89.40
2019-02-16T17:07:10.272Z,89.20
2019-02-16T17:09:40.383Z,88.60
2019-02-16T17:12:22.184Z,89.30
2019-02-16T17:15:00.004Z,89.30
2019-02-16T17:17:31.843Z,89.30
2019-02-16T17:20:00.936Z,89.50
2019-02-16T17:22:44.689Z,89.60
2019-02-16T17:25:19.593Z,89.30
2019-02-16T17:27:51.532Z,89.10
2019-02-16T17:30:29.471Z,89.20
2019-02-16T17:33:15.179Z,89.10
2019-02-16T17:35:47.167Z,89.10
2019-02-16T17:38:21.883Z,89.20
2019-02-16T17:41:06.122Z,89.40
2019-02-16T17:43:37.979Z,89.20
2019-02-16T17:46:23.781Z,89.00
2019-02-16T17:49:10.848Z,88.90
2019-02-16T17:51:46.108Z,88.60
2019-02-16T17:54:18.019Z,88.40
2019-02-16T17:56:47.156Z,88.30
2019-02-16T17:59:22.145Z,88.50
2019-02-16T18:02:07.405Z,88.30
2019-02-16T18:04:48.428Z,88.10
2019-02-16T18:07:26.569Z,88.30
2019-02-16T18:09:55.734Z,88.50
2019-02-16T18:12:41.262Z,88.40
2019-02-16T18:15:16.351Z,88.70
2019-02-16T18:17:45.591Z,88.90
2019-02-16T18:20:14.763Z,89.00
2019-02-16T18:22:46.988Z,89.30
2019-02-16T18:25:16.214Z,89.60
2019-02-16T18:28:01.980Z,89.60
2019-02-16T18:30:44.455Z,89.40
2019-02-16T18:33:30.494Z,90.10
2019-02-16T18:36:08.969Z,87.70
2019-02-16T18:38:38.028Z,86.80
2019-02-16T18:41:13.071Z,86.10
2019-02-16T18:43:59.884Z,85.00
2019-02-16T18:46:38.083Z,84.00
2019-02-16T18:49:22.308Z,83.40
2019-02-16T18:51:57.181Z,82.40
2019-02-16T18:54:29.045Z,81.40
2019-02-16T18:57:14.553Z,80.80
2019-02-16T18:59:51.122Z,79.70
2019-02-16T19:02:20.227Z,79.80
2019-02-16T19:04:51.799Z,79.80
2019-02-16T19:07:23.615Z,78.50
2019-02-16T19:10:04.647Z,78.30
2019-02-16T19:12:36.520Z,78.20
2019-02-16T19:15:13.541Z,77.60
2019-02-16T19:17:42.588Z,77.20
2019-02-16T19:20:14.970Z,77.00
2019-02-16T19:22:46.911Z,77.20
2019-02-16T19:25:30.547Z,77.50
2019-02-16T19:28:02.345Z,77.20
2019-02-16T19:30:37.189Z,77.10
2019-02-16T19:33:08.875Z,76.90
2019-02-16T19:35:46.950Z,76.00
2019-02-16T19:38:32.598Z,76.40
2019-02-16T19:41:13.851Z,75.40
2019-02-16T19:43:46.331Z,74.50
2019-02-16T19:46:18.205Z,74.10
2019-02-16T19:49:05.319Z,72.40
2019-02-16T19:51:46.318Z,71.70
2019-02-16T19:54:32.694Z,71.10
2019-02-16T19:57:04.733Z,70.20
2019-02-16T19:59:36.590Z,70.20
2019-02-16T20:02:08.688Z,70.20
2019-02-16T20:04:40.528Z,69.40
2019-02-16T20:07:26.484Z,69.80
2019-02-16T20:09:55.706Z,69.20
2019-02-16T20:12:30.878Z,68.60
2019-02-16T20:15:02.830Z,68.60
2019-02-16T20:17:34.845Z,68.20
2019-02-16T20:20:07.266Z,67.90
2019-02-16T20:22:41.183Z,67.30
2019-02-16T20:25:12.875Z,66.80
2019-02-16T20:27:42.312Z,66.70
2019-02-16T20:33:10.602Z,64.90
2019-02-16T20:35:49.322Z,65.40
2019-02-16T20:38:21.900Z,65.40
2019-02-16T20:40:57.340Z,64.90
2019-02-16T20:43:30.274Z,64.30
2019-02-16T20:46:17.854Z,64.50
2019-02-16T20:48:54.124Z,65.00
2019-02-16T20:51:24.235Z,65.10
2019-02-16T20:54:12.377Z,65.90
2019-02-16T20:56:45.776Z,65.30
2019-02-16T20:59:32.073Z,64.60
2019-02-16T21:02:19.189Z,65.00
2019-02-16T21:05:05.694Z,64.70
2019-02-16T21:07:36.015Z,64.30
2019-02-16T21:13:15.369Z,64.20
2019-02-16T21:15:51.223Z,63.20
2019-02-16T21:18:39.098Z,64.70
2019-02-16T21:21:11.531Z,63.80
2019-02-16T21:23:41.035Z,64.50
2019-02-16T21:26:11.155Z,64.80
2019-02-16T21:28:50.285Z,64.80
2019-02-16T21:31:20.609Z,65.10
2019-02-16T21:33:56.289Z,65.40
2019-02-16T21:36:30.165Z,65.00
2019-02-16T21:39:12.063Z,65.40
2019-02-16T21:41:59.177Z,65.40
2019-02-16T21:44:29.346Z,65.60
2019-02-16T21:47:02.708Z,65.00
2019-02-16T21:49:32.671Z,65.40
2019-02-16T21:52:05.185Z,65.60
2019-02-16T21:54:35.507Z,66.00
2019-02-16T21:57:14.637Z,66.40
2019-02-16T22:00:00.945Z,66.60
2019-02-16T22:02:36.583Z,66.80
2019-02-16T22:05:23.291Z,67.00
2019-02-16T22:08:07.952Z,67.50
2019-02-16T22:10:44.029Z,67.80
2019-02-16T22:13:12.079Z,68.10
2019-02-16T22:15:40.561Z,68.00
2019-02-16T22:18:08.632Z,68.20
2019-02-16T22:20:37.119Z,68.60
2019-02-16T22:23:05.593Z,68.90
2019-02-16T22:25:34.073Z,69.10
2019-02-16T22:28:05.830Z,69.40
2019-02-16T22:30:34.311Z,71.80
2019-02-16T22:33:04.019Z,70.40
2019-02-16T22:35:32.915Z,70.70
2019-02-16T22:38:03.849Z,70.90
2019-02-16T22:40:33.815Z,71.60
2019-02-16T22:43:02.039Z,72.10
2019-02-16T22:45:30.518Z,72.20
2019-02-16T22:47:58.794Z,72.40
2019-02-16T22:50:27.070Z,72.80
2019-02-16T22:52:55.346Z,73.30
2019-02-16T22:55:26.489Z,73.30
2019-02-16T22:57:55.019Z,74.90
2019-02-16T23:00:27.756Z,73.60
2019-02-16T23:02:56.232Z,74.00
2019-02-16T23:05:23.895Z,73.80
2019-02-16T23:07:52.374Z,73.40
2019-02-16T23:10:20.854Z,74.10
2019-02-16T23:12:49.746Z,74.40
2019-02-16T23:15:18.020Z,74.30
2019-02-16T23:17:46.295Z,74.30
2019-02-16T23:20:14.571Z,74.10
2019-02-16T23:22:43.050Z,73.80
2019-02-16T23:25:11.372Z,73.90
2019-02-16T23:27:39.808Z,73.70
2019-02-16T23:30:09.928Z,74.20
2019-02-16T23:32:37.792Z,74.70
2019-02-16T23:35:07.130Z,74.60
2019-02-16T23:37:34.958Z,75.00
2019-02-16T23:40:03.849Z,75.00
2019-02-16T23:42:34.583Z,75.00
2019-02-16T23:45:04.216Z,75.20
2019-02-16T23:47:31.953Z,75.40
2019-02-16T23:50:00.467Z,75.90
2019-02-16T23:52:28.709Z,75.80
2019-02-16T23:54:56.984Z,75.90
2019-02-16T23:57:25.055Z,75.90
2019-02-16T23:59:53.333Z,76.20
